sensor_id;sensor_type;location;lat;lon;timestamp;pressure;altitude;pressure_sealevel;temperature;humidity
36386;BME280;24125;47.482;8.770;2023-04-07T00:02:19;96300.13;;;12.13;71.18
36386;BME280;24125;47.482;8.770;2023-04-07T00:04:52;96303.13;;;12.12;71.73
36386;BME280;24125;47.482;8.770;2023-04-07T00:07:26;96302.03;;;12.13;72.07
36386;BME280;24125;47.482;8.770;2023-04-07T00:10:01;96294.78;;;12.13;71.94
36386;BME280;24125;47.482;8.770;2023-04-07T00:12:33;96300.47;;;12.12;72.04
36386;BME280;24125;47.482;8.770;2023-04-07T00:15:07;96296.66;;;12.13;72.12
36386;BME280;24125;47.482;8.770;2023-04-07T00:17:40;96290.53;;;12.12;71.71
36386;BME280;24125;47.482;8.770;2023-04-07T00:20:13;96287.44;;;12.10;71.62
36386;BME280;24125;47.482;8.770;2023-04-07T00:22:45;96275.94;;;12.09;71.95
36386;BME280;24125;47.482;8.770;2023-04-07T00:25:20;96285.53;;;12.11;72.17
36386;BME280;24125;47.482;8.770;2023-04-07T00:27:52;96275.94;;;12.09;71.71
36386;BME280;24125;47.482;8.770;2023-04-07T00:30:25;96268.69;;;12.10;72.13
36386;BME280;24125;47.482;8.770;2023-04-07T00:32:58;96272.16;;;12.11;71.83
36386;BME280;24125;47.482;8.770;2023-04-07T00:35:31;96264.47;;;12.09;71.71
36386;BME280;24125;47.482;8.770;2023-04-07T00:38:03;96255.31;;;12.10;71.84
36386;BME280;24125;47.482;8.770;2023-04-07T00:40:37;96248.41;;;12.09;72.61
36386;BME280;24125;47.482;8.770;2023-04-07T00:43:10;96248.41;;;12.09;71.87
36386;BME280;24125;47.482;8.770;2023-04-07T00:45:43;96238.03;;;12.07;72.03
36386;BME280;24125;47.482;8.770;2023-04-07T00:48:16;96240.38;;;12.09;71.92
36386;BME280;24125;47.482;8.770;2023-04-07T00:50:49;96232.34;;;12.09;71.82
36386;BME280;24125;47.482;8.770;2023-04-07T00:53:22;96228.09;;;12.08;71.92
36386;BME280;24125;47.482;8.770;2023-04-07T00:55:57;96230.00;;;12.07;72.29
36386;BME280;24125;47.482;8.770;2023-04-07T00:58:29;96215.84;;;12.07;72.46
36386;BME280;24125;47.482;8.770;2023-04-07T01:01:03;96218.50;;;12.07;71.97
36386;BME280;24125;47.482;8.770;2023-04-07T01:03:40;96215.84;;;12.07;72.16
36386;BME280;24125;47.482;8.770;2023-04-07T01:06:17;96212.38;;;12.06;71.84
36386;BME280;24125;47.482;8.770;2023-04-07T01:08:53;96204.69;;;12.05;71.71
36386;BME280;24125;47.482;8.770;2023-04-07T01:11:29;96208.59;;;12.07;72.01
36386;BME280;24125;47.482;8.770;2023-04-07T01:14:02;96204.34;;;12.06;71.97
36386;BME280;24125;47.482;8.770;2023-04-07T01:16:37;96202.00;;;12.05;71.84
36386;BME280;24125;47.482;8.770;2023-04-07T01:19:13;96195.09;;;12.04;71.72
36386;BME280;24125;47.482;8.770;2023-04-07T01:21:47;96196.97;;;12.03;72.06
36386;BME280;24125;47.482;8.770;2023-04-07T01:24:26;96203.91;;;12.04;72.06
36386;BME280;24125;47.482;8.770;2023-04-07T01:27:13;96185.50;;;12.03;72.06
36386;BME280;24125;47.482;8.770;2023-04-07T01:29:47;96190.84;;;12.03;71.92
36386;BME280;24125;47.482;8.770;2023-04-07T01:32:21;96193.88;;;12.01;71.91
36386;BME280;24125;47.482;8.770;2023-04-07T01:34:55;96195.78;;;12.01;71.60
36386;BME280;24125;47.482;8.770;2023-04-07T01:37:29;96195.00;;;12.00;71.62
36386;BME280;24125;47.482;8.770;2023-04-07T01:40:02;96190.41;;;12.01;71.38
36386;BME280;24125;47.482;8.770;2023-04-07T01:42:35;96191.53;;;12.00;71.26
36386;BME280;24125;47.482;8.770;2023-04-07T01:45:11;96191.53;;;12.00;71.29
36386;BME280;24125;47.482;8.770;2023-04-07T01:47:44;96183.06;;;11.98;71.65
36386;BME280;24125;47.482;8.770;2023-04-07T01:50:18;96185.72;;;11.98;71.52
36386;BME280;24125;47.482;8.770;2023-04-07T01:52:52;96189.97;;;11.99;71.90
36386;BME280;24125;47.482;8.770;2023-04-07T01:55:25;96182.59;;;11.96;72.19
36386;BME280;24125;47.482;8.770;2023-04-07T01:57:58;96175.69;;;11.95;71.61
36386;BME280;24125;47.482;8.770;2023-04-07T02:00:36;96184.81;;;11.94;71.88
36386;BME280;24125;47.482;8.770;2023-04-07T02:03:10;96177.94;;;11.93;71.30
36386;BME280;24125;47.482;8.770;2023-04-07T02:05:53;96172.56;;;11.93;71.60
36386;BME280;24125;47.482;8.770;2023-04-07T02:08:27;96167.88;;;11.90;71.80
36386;BME280;24125;47.482;8.770;2023-04-07T02:11:02;96170.56;;;11.90;71.47
36386;BME280;24125;47.482;8.770;2023-04-07T02:13:38;96163.19;;;11.87;71.59
36386;BME280;24125;47.482;8.770;2023-04-07T02:16:13;96165.88;;;11.87;71.09
36386;BME280;24125;47.482;8.770;2023-04-07T02:18:46;96166.56;;;11.84;71.46
36386;BME280;24125;47.482;8.770;2023-04-07T02:21:19;96155.72;;;11.80;71.46
36386;BME280;24125;47.482;8.770;2023-04-07T02:23:53;96158.72;;;11.79;71.03
36386;BME280;24125;47.482;8.770;2023-04-07T02:26:26;96149.50;;;11.76;71.17
36386;BME280;24125;47.482;8.770;2023-04-07T02:28:59;96149.34;;;11.72;71.51
36386;BME280;24125;47.482;8.770;2023-04-07T02:31:33;96152.66;;;11.69;71.20
36386;BME280;24125;47.482;8.770;2023-04-07T02:34:06;96145.75;;;11.68;71.47
36386;BME280;24125;47.482;8.770;2023-04-07T02:36:39;96151.78;;;11.65;71.29
36386;BME280;24125;47.482;8.770;2023-04-07T02:39:12;96144.88;;;11.64;71.30
36386;BME280;24125;47.482;8.770;2023-04-07T02:41:44;96155.09;;;11.62;71.41
36386;BME280;24125;47.482;8.770;2023-04-07T02:44:17;96142.06;;;11.61;71.24
36386;BME280;24125;47.482;8.770;2023-04-07T02:46:51;96135.50;;;11.58;70.98
36386;BME280;24125;47.482;8.770;2023-04-07T02:49:24;96136.63;;;11.57;71.70
36386;BME280;24125;47.482;8.770;2023-04-07T02:51:56;96137.72;;;11.56;71.51
36386;BME280;24125;47.482;8.770;2023-04-07T02:54:29;96131.13;;;11.54;71.64
36386;BME280;24125;47.482;8.770;2023-04-07T02:57:02;96129.25;;;11.54;71.58
36386;BME280;24125;47.482;8.770;2023-04-07T02:59:34;96120.31;;;11.50;71.60
36386;BME280;24125;47.482;8.770;2023-04-07T03:02:09;96120.69;;;11.49;71.43
36386;BME280;24125;47.482;8.770;2023-04-07T03:04:41;96117.53;;;11.47;71.37
36386;BME280;24125;47.482;8.770;2023-04-07T03:07:14;96101.38;;;11.43;71.32
36386;BME280;24125;47.482;8.770;2023-04-07T03:09:47;96098.59;;;11.40;71.48
36386;BME280;24125;47.482;8.770;2023-04-07T03:12:19;96094.22;;;11.35;71.19
36386;BME280;24125;47.482;8.770;2023-04-07T03:14:52;96093.69;;;11.29;70.77
36386;BME280;24125;47.482;8.770;2023-04-07T03:17:26;96088.09;;;11.22;70.42
36386;BME280;24125;47.482;8.770;2023-04-07T03:19:59;96088.97;;;11.14;70.06
36386;BME280;24125;47.482;8.770;2023-04-07T03:22:32;96088.28;;;11.05;69.21
36386;BME280;24125;47.482;8.770;2023-04-07T03:25:05;96081.78;;;10.94;69.38
36386;BME280;24125;47.482;8.770;2023-04-07T03:27:38;96078.72;;;10.83;68.78
36386;BME280;24125;47.482;8.770;2023-04-07T03:30:11;96074.94;;;10.72;69.28
36386;BME280;24125;47.482;8.770;2023-04-07T03:32:45;96072.66;;;10.62;68.95
36386;BME280;24125;47.482;8.770;2023-04-07T03:35:18;96076.50;;;10.52;69.21
36386;BME280;24125;47.482;8.770;2023-04-07T03:37:50;96074.53;;;10.41;69.29
36386;BME280;24125;47.482;8.770;2023-04-07T03:40:23;96073.38;;;10.30;69.22
36386;BME280;24125;47.482;8.770;2023-04-07T03:42:56;96081.91;;;10.23;69.35
36386;BME280;24125;47.482;8.770;2023-04-07T03:45:29;96080.34;;;10.13;69.32
36386;BME280;24125;47.482;8.770;2023-04-07T03:48:03;96078.22;;;10.07;69.85
36386;BME280;24125;47.482;8.770;2023-04-07T03:50:36;96082.19;;;10.01;69.89
36386;BME280;24125;47.482;8.770;2023-04-07T03:53:09;96075.59;;;9.98;70.25
36386;BME280;24125;47.482;8.770;2023-04-07T03:55:41;96067.00;;;9.93;70.41
36386;BME280;24125;47.482;8.770;2023-04-07T03:58:15;96073.44;;;9.92;70.59
36386;BME280;24125;47.482;8.770;2023-04-07T04:00:47;96066.56;;;9.91;70.58
36386;BME280;24125;47.482;8.770;2023-04-07T04:03:22;96073.75;;;9.90;71.13
36386;BME280;24125;47.482;8.770;2023-04-07T04:05:55;96070.31;;;9.90;71.24
36386;BME280;24125;47.482;8.770;2023-04-07T04:08:27;96070.47;;;9.93;71.61
36386;BME280;24125;47.482;8.770;2023-04-07T04:11:00;96065.13;;;9.93;71.42
36386;BME280;24125;47.482;8.770;2023-04-07T04:13:33;96070.91;;;9.95;71.80
36386;BME280;24125;47.482;8.770;2023-04-07T04:16:06;96056.47;;;9.96;71.42
36386;BME280;24125;47.482;8.770;2023-04-07T04:18:41;96068.38;;;9.99;71.39
36386;BME280;24125;47.482;8.770;2023-04-07T04:21:13;96063.81;;;9.99;71.83
36386;BME280;24125;47.482;8.770;2023-04-07T04:23:47;96069.63;;;10.01;72.01
36386;BME280;24125;47.482;8.770;2023-04-07T04:26:19;96067.41;;;10.03;71.59
36386;BME280;24125;47.482;8.770;2023-04-07T04:28:56;96075.41;;;10.03;71.82
36386;BME280;24125;47.482;8.770;2023-04-07T04:31:29;96073.19;;;10.05;72.04
36386;BME280;24125;47.482;8.770;2023-04-07T04:34:03;96063.31;;;10.06;72.45
36386;BME280;24125;47.482;8.770;2023-04-07T04:36:35;96065.66;;;10.07;72.38
36386;BME280;24125;47.482;8.770;2023-04-07T04:39:09;96066.91;;;10.10;72.50
36386;BME280;24125;47.482;8.770;2023-04-07T04:41:41;96060.91;;;10.13;72.28
36386;BME280;24125;47.482;8.770;2023-04-07T04:44:14;96059.81;;;10.14;72.39
36386;BME280;24125;47.482;8.770;2023-04-07T04:46:47;96061.03;;;10.16;72.18
36386;BME280;24125;47.482;8.770;2023-04-07T04:49:21;96058.38;;;10.16;72.32
36386;BME280;24125;47.482;8.770;2023-04-07T04:51:54;96056.19;;;10.18;72.07
36386;BME280;24125;47.482;8.770;2023-04-07T04:54:27;96051.16;;;10.17;71.47
36386;BME280;24125;47.482;8.770;2023-04-07T04:57:00;96040.81;;;10.15;71.75
36386;BME280;24125;47.482;8.770;2023-04-07T04:59:33;96041.91;;;10.14;71.47
36386;BME280;24125;47.482;8.770;2023-04-07T05:02:06;96034.56;;;10.11;71.23
36386;BME280;24125;47.482;8.770;2023-04-07T05:04:40;96041.66;;;10.07;71.24
36386;BME280;24125;47.482;8.770;2023-04-07T05:07:13;96043.06;;;10.05;70.85
36386;BME280;24125;47.482;8.770;2023-04-07T05:09:46;96036.06;;;10.00;71.19
36386;BME280;24125;47.482;8.770;2023-04-07T05:12:18;96032.94;;;9.98;71.12
36386;BME280;24125;47.482;8.770;2023-04-07T05:14:52;96027.78;;;9.93;71.20
36386;BME280;24125;47.482;8.770;2023-04-07T05:17:24;96027.66;;;9.90;71.64
36386;BME280;24125;47.482;8.770;2023-04-07T05:19:58;96024.97;;;9.90;71.38
36386;BME280;24125;47.482;8.770;2023-04-07T05:22:31;96028.28;;;9.87;71.51
36386;BME280;24125;47.482;8.770;2023-04-07T05:25:04;96030.63;;;9.88;71.43
36386;BME280;24125;47.482;8.770;2023-04-07T05:27:37;96024.53;;;9.88;71.91
36386;BME280;24125;47.482;8.770;2023-04-07T05:30:10;96024.19;;;9.89;72.02
36386;BME280;24125;47.482;8.770;2023-04-07T05:32:43;96023.09;;;9.90;72.32
36386;BME280;24125;47.482;8.770;2023-04-07T05:35:17;96018.56;;;9.91;72.32
36386;BME280;24125;47.482;8.770;2023-04-07T05:37:50;96017.91;;;9.94;72.25
36386;BME280;24125;47.482;8.770;2023-04-07T05:40:23;96018.03;;;9.97;72.70
36386;BME280;24125;47.482;8.770;2023-04-07T05:42:55;96017.84;;;10.02;72.66
36386;BME280;24125;47.482;8.770;2023-04-07T05:45:28;96017.97;;;10.06;72.98
36386;BME280;24125;47.482;8.770;2023-04-07T05:48:01;96022.66;;;10.09;73.39
36386;BME280;24125;47.482;8.770;2023-04-07T05:50:36;96023.91;;;10.11;73.29
36386;BME280;24125;47.482;8.770;2023-04-07T05:53:08;96022.63;;;10.17;73.15
36386;BME280;24125;47.482;8.770;2023-04-07T05:55:41;96012.06;;;10.21;73.04
36386;BME280;24125;47.482;8.770;2023-04-07T05:58:14;96020.34;;;10.28;73.20
36386;BME280;24125;47.482;8.770;2023-04-07T06:00:46;96015.13;;;10.32;73.18
36386;BME280;24125;47.482;8.770;2023-04-07T06:03:19;96004.28;;;10.37;73.44
36386;BME280;24125;47.482;8.770;2023-04-07T06:05:53;95994.81;;;10.39;74.19
36386;BME280;24125;47.482;8.770;2023-04-07T06:08:26;96002.31;;;10.46;73.85
36386;BME280;24125;47.482;8.770;2023-04-07T06:10:58;96013.22;;;10.53;73.48
36386;BME280;24125;47.482;8.770;2023-04-07T06:13:32;96009.69;;;10.61;74.04
36386;BME280;24125;47.482;8.770;2023-04-07T06:16:05;96012.59;;;10.68;74.40
36386;BME280;24125;47.482;8.770;2023-04-07T06:18:38;96014.41;;;10.76;74.26
36386;BME280;24125;47.482;8.770;2023-04-07T06:21:13;96011.19;;;10.83;74.01
36386;BME280;24125;47.482;8.770;2023-04-07T06:23:46;96014.56;;;10.92;73.90
36386;BME280;24125;47.482;8.770;2023-04-07T06:26:19;96011.78;;;11.01;73.50
36386;BME280;24125;47.482;8.770;2023-04-07T06:28:53;96015.47;;;11.08;73.18
36386;BME280;24125;47.482;8.770;2023-04-07T06:31:26;96012.28;;;11.15;73.20
36386;BME280;24125;47.482;8.770;2023-04-07T06:33:59;96015.16;;;11.22;73.77
36386;BME280;24125;47.482;8.770;2023-04-07T06:36:33;96019.97;;;11.28;73.18
36386;BME280;24125;47.482;8.770;2023-04-07T06:39:06;96030.41;;;11.33;73.44
36386;BME280;24125;47.482;8.770;2023-04-07T06:41:41;96033.22;;;11.37;73.41
36386;BME280;24125;47.482;8.770;2023-04-07T06:44:14;96032.97;;;11.42;70.33
36386;BME280;24125;47.482;8.770;2023-04-07T06:46:47;96028.88;;;11.45;71.36
36386;BME280;24125;47.482;8.770;2023-04-07T06:49:23;96040.03;;;11.47;71.50
36386;BME280;24125;47.482;8.770;2023-04-07T06:51:57;96029.78;;;11.49;73.38
36386;BME280;24125;47.482;8.770;2023-04-07T06:54:30;96030.56;;;11.49;73.31
36386;BME280;24125;47.482;8.770;2023-04-07T06:57:03;96030.19;;;11.51;72.27
36386;BME280;24125;47.482;8.770;2023-04-07T06:59:37;96026.00;;;11.50;71.00
36386;BME280;24125;47.482;8.770;2023-04-07T07:02:09;96024.84;;;11.51;71.50
36386;BME280;24125;47.482;8.770;2023-04-07T07:04:42;96023.88;;;11.55;72.24
36386;BME280;24125;47.482;8.770;2023-04-07T07:07:17;96023.63;;;11.60;72.64
36386;BME280;24125;47.482;8.770;2023-04-07T07:09:49;96018.84;;;11.66;73.08
36386;BME280;24125;47.482;8.770;2023-04-07T07:12:22;96024.13;;;11.75;72.58
36386;BME280;24125;47.482;8.770;2023-04-07T07:14:55;96016.41;;;11.85;73.91
36386;BME280;24125;47.482;8.770;2023-04-07T07:17:28;96025.53;;;11.96;73.50
36386;BME280;24125;47.482;8.770;2023-04-07T07:20:01;96029.41;;;12.11;73.56
36386;BME280;24125;47.482;8.770;2023-04-07T07:22:35;96028.59;;;12.23;73.28
36386;BME280;24125;47.482;8.770;2023-04-07T07:25:08;96033.59;;;12.36;73.62
36386;BME280;24125;47.482;8.770;2023-04-07T07:27:41;96027.50;;;12.52;74.22
36386;BME280;24125;47.482;8.770;2023-04-07T07:30:13;96024.00;;;12.63;74.14
36386;BME280;24125;47.482;8.770;2023-04-07T07:32:46;96033.88;;;12.75;74.36
36386;BME280;24125;47.482;8.770;2023-04-07T07:35:20;96035.41;;;12.88;73.81
36386;BME280;24125;47.482;8.770;2023-04-07T07:37:54;96037.22;;;13.00;74.20
36386;BME280;24125;47.482;8.770;2023-04-07T07:40:26;96035.16;;;13.09;74.15
36386;BME280;24125;47.482;8.770;2023-04-07T07:42:59;96037.00;;;13.20;73.39
36386;BME280;24125;47.482;8.770;2023-04-07T07:45:32;96028.47;;;13.31;72.94
36386;BME280;24125;47.482;8.770;2023-04-07T07:48:05;96027.50;;;13.39;72.87
36386;BME280;24125;47.482;8.770;2023-04-07T07:50:37;96029.69;;;13.49;72.38
36386;BME280;24125;47.482;8.770;2023-04-07T07:53:12;96029.84;;;13.56;73.05
36386;BME280;24125;47.482;8.770;2023-04-07T07:55:45;96030.34;;;13.62;72.33
36386;BME280;24125;47.482;8.770;2023-04-07T07:58:17;96036.59;;;13.66;71.94
36386;BME280;24125;47.482;8.770;2023-04-07T08:00:50;96033.97;;;13.69;71.36
36386;BME280;24125;47.482;8.770;2023-04-07T08:03:23;96036.75;;;13.73;70.79
36386;BME280;24125;47.482;8.770;2023-04-07T08:05:56;96041.84;;;13.78;70.94
36386;BME280;24125;47.482;8.770;2023-04-07T08:08:30;96042.28;;;13.80;70.98
36386;BME280;24125;47.482;8.770;2023-04-07T08:11:02;96040.38;;;13.80;70.28
36386;BME280;24125;47.482;8.770;2023-04-07T08:13:35;96034.66;;;13.82;69.93
36386;BME280;24125;47.482;8.770;2023-04-07T08:16:08;96046.97;;;13.83;69.37
36386;BME280;24125;47.482;8.770;2023-04-07T08:18:41;96052.31;;;13.83;69.72
36386;BME280;24125;47.482;8.770;2023-04-07T08:21:14;96048.84;;;13.82;69.19
36386;BME280;24125;47.482;8.770;2023-04-07T08:23:48;96055.34;;;13.81;69.42
36386;BME280;24125;47.482;8.770;2023-04-07T08:26:21;96053.78;;;13.80;70.17
36386;BME280;24125;47.482;8.770;2023-04-07T08:28:54;96053.00;;;13.80;69.90
36386;BME280;24125;47.482;8.770;2023-04-07T08:31:27;96062.19;;;13.79;70.66
36386;BME280;24125;47.482;8.770;2023-04-07T08:34:00;96061.41;;;13.78;69.47
36386;BME280;24125;47.482;8.770;2023-04-07T08:36:32;96061.41;;;13.78;66.60
36386;BME280;24125;47.482;8.770;2023-04-07T08:39:07;96067.53;;;13.79;67.50
36386;BME280;24125;47.482;8.770;2023-04-07T08:41:40;96067.19;;;13.80;68.77
36386;BME280;24125;47.482;8.770;2023-04-07T08:44:15;96071.50;;;13.85;69.13
36386;BME280;24125;47.482;8.770;2023-04-07T08:46:48;96076.97;;;13.88;70.72
36386;BME280;24125;47.482;8.770;2023-04-07T08:49:22;96070.97;;;13.95;71.15
36386;BME280;24125;47.482;8.770;2023-04-07T08:51:56;96071.13;;;14.02;70.28
36386;BME280;24125;47.482;8.770;2023-04-07T08:54:32;96076.31;;;14.11;70.25
36386;BME280;24125;47.482;8.770;2023-04-07T08:57:05;96079.25;;;14.21;71.45
36386;BME280;24125;47.482;8.770;2023-04-07T08:59:40;96070.66;;;14.31;71.83
36386;BME280;24125;47.482;8.770;2023-04-07T09:02:14;96071.34;;;14.44;72.21
36386;BME280;24125;47.482;8.770;2023-04-07T09:04:47;96077.78;;;14.59;72.40
36386;BME280;24125;47.482;8.770;2023-04-07T09:07:20;96085.78;;;14.75;71.67
36386;BME280;24125;47.482;8.770;2023-04-07T09:09:55;96087.59;;;14.90;73.23
36386;BME280;24125;47.482;8.770;2023-04-07T09:12:28;96090.19;;;15.05;71.31
36386;BME280;24125;47.482;8.770;2023-04-07T09:15:02;96084.31;;;15.19;73.32
36386;BME280;24125;47.482;8.770;2023-04-07T09:17:35;96077.28;;;15.34;72.55
36386;BME280;24125;47.482;8.770;2023-04-07T09:20:08;96087.09;;;15.45;71.71
36386;BME280;24125;47.482;8.770;2023-04-07T09:22:41;96076.97;;;15.58;71.73
36386;BME280;24125;47.482;8.770;2023-04-07T09:25:17;96084.06;;;15.70;72.86
36386;BME280;24125;47.482;8.770;2023-04-07T09:27:54;96083.47;;;15.80;70.09
36386;BME280;24125;47.482;8.770;2023-04-07T09:30:27;96075.56;;;15.91;69.87
36386;BME280;24125;47.482;8.770;2023-04-07T09:33:00;96080.31;;;16.01;68.60
36386;BME280;24125;47.482;8.770;2023-04-07T09:35:37;96083.94;;;16.12;70.82
36386;BME280;24125;47.482;8.770;2023-04-07T09:38:22;96082.63;;;16.25;68.17
36386;BME280;24125;47.482;8.770;2023-04-07T09:41:05;96083.13;;;16.34;66.27
36386;BME280;24125;47.482;8.770;2023-04-07T09:43:39;96084.81;;;16.46;67.18
36386;BME280;24125;47.482;8.770;2023-04-07T09:46:13;96079.94;;;16.55;65.44
36386;BME280;24125;47.482;8.770;2023-04-07T09:48:46;96085.50;;;16.66;63.89
36386;BME280;24125;47.482;8.770;2023-04-07T09:51:19;96097.59;;;16.79;67.39
36386;BME280;24125;47.482;8.770;2023-04-07T09:53:52;96102.34;;;16.89;70.01
36386;BME280;24125;47.482;8.770;2023-04-07T09:56:26;96103.28;;;17.04;71.94
36386;BME280;24125;47.482;8.770;2023-04-07T09:59:00;96108.44;;;17.16;68.46
36386;BME280;24125;47.482;8.770;2023-04-07T10:01:33;96101.25;;;17.30;71.29
36386;BME280;24125;47.482;8.770;2023-04-07T10:04:07;96112.22;;;17.45;70.66
36386;BME280;24125;47.482;8.770;2023-04-07T10:06:40;96101.88;;;17.54;70.00
36386;BME280;24125;47.482;8.770;2023-04-07T10:09:14;96100.84;;;17.65;72.62
36386;BME280;24125;47.482;8.770;2023-04-07T10:11:50;96108.28;;;17.76;74.82
36386;BME280;24125;47.482;8.770;2023-04-07T10:14:25;96107.94;;;17.81;75.49
36386;BME280;24125;47.482;8.770;2023-04-07T10:16:58;96113.41;;;17.88;72.93
36386;BME280;24125;47.482;8.770;2023-04-07T10:19:32;96118.03;;;17.91;75.09
36386;BME280;24125;47.482;8.770;2023-04-07T10:22:05;96116.94;;;17.95;72.67
36386;BME280;24125;47.482;8.770;2023-04-07T10:24:43;96112.72;;;18.01;75.16
36386;BME280;24125;47.482;8.770;2023-04-07T10:27:22;96117.03;;;18.06;74.33
36386;BME280;24125;47.482;8.770;2023-04-07T10:29:58;96119.78;;;18.13;75.55
36386;BME280;24125;47.482;8.770;2023-04-07T10:32:40;96118.28;;;18.19;73.11
36386;BME280;24125;47.482;8.770;2023-04-07T10:35:17;96124.13;;;18.28;73.96
36386;BME280;24125;47.482;8.770;2023-04-07T10:38:08;96124.56;;;18.37;72.50
36386;BME280;24125;47.482;8.770;2023-04-07T10:40:42;96125.38;;;18.45;72.50
36386;BME280;24125;47.482;8.770;2023-04-07T10:43:35;96121.56;;;18.53;74.28
36386;BME280;24125;47.482;8.770;2023-04-07T10:46:08;96120.88;;;18.60;73.93
36386;BME280;24125;47.482;8.770;2023-04-07T10:48:40;96122.84;;;18.66;74.18
36386;BME280;24125;47.482;8.770;2023-04-07T10:51:14;96127.88;;;18.71;75.45
36386;BME280;24125;47.482;8.770;2023-04-07T10:57:08;96126.38;;;18.77;69.80
36386;BME280;24125;47.482;8.770;2023-04-07T11:02:34;96130.66;;;18.85;69.60
36386;BME280;24125;47.482;8.770;2023-04-07T11:05:07;96128.34;;;18.88;70.01
36386;BME280;24125;47.482;8.770;2023-04-07T11:07:47;96131.50;;;18.93;69.82
36386;BME280;24125;47.482;8.770;2023-04-07T11:10:21;96131.88;;;18.95;70.53
36386;BME280;24125;47.482;8.770;2023-04-07T11:13:01;96135.38;;;18.99;68.34
36386;BME280;24125;47.482;8.770;2023-04-07T11:15:34;96128.44;;;19.02;67.12
36386;BME280;24125;47.482;8.770;2023-04-07T11:18:13;96136.53;;;19.05;68.42
36386;BME280;24125;47.482;8.770;2023-04-07T11:20:47;96130.75;;;19.07;70.45
36386;BME280;24125;47.482;8.770;2023-04-07T11:23:21;96134.25;;;19.07;69.80
36386;BME280;24125;47.482;8.770;2023-04-07T11:25:58;96147.41;;;19.09;68.99
36386;BME280;24125;47.482;8.770;2023-04-07T11:28:32;96143.91;;;19.08;67.09
36386;BME280;24125;47.482;8.770;2023-04-07T11:31:04;96141.97;;;19.09;67.00
36386;BME280;24125;47.482;8.770;2023-04-07T11:33:40;96150.47;;;19.07;67.92
36386;BME280;24125;47.482;8.770;2023-04-07T11:36:14;96150.47;;;19.07;72.68
36386;BME280;24125;47.482;8.770;2023-04-07T11:38:57;96152.03;;;19.08;73.04
36386;BME280;24125;47.482;8.770;2023-04-07T11:41:30;96158.59;;;19.07;72.17
36386;BME280;24125;47.482;8.770;2023-04-07T11:44:04;96159.75;;;19.06;72.95
36386;BME280;24125;47.482;8.770;2023-04-07T11:46:50;96165.91;;;19.03;72.05
36386;BME280;24125;47.482;8.770;2023-04-07T11:49:25;96161.66;;;18.99;67.89
36386;BME280;24125;47.482;8.770;2023-04-07T11:52:00;96162.03;;;18.94;66.74
36386;BME280;24125;47.482;8.770;2023-04-07T11:54:40;96162.00;;;18.90;64.76
36386;BME280;24125;47.482;8.770;2023-04-07T11:57:13;96169.31;;;18.86;69.38
36386;BME280;24125;47.482;8.770;2023-04-07T11:59:46;96175.47;;;18.83;69.03
36386;BME280;24125;47.482;8.770;2023-04-07T12:02:29;96166.16;;;18.77;71.07
36386;BME280;24125;47.482;8.770;2023-04-07T12:05:04;96168.06;;;18.73;70.76
36386;BME280;24125;47.482;8.770;2023-04-07T12:07:37;96169.97;;;18.69;68.05
36386;BME280;24125;47.482;8.770;2023-04-07T12:10:17;96165.72;;;18.64;68.43
36386;BME280;24125;47.482;8.770;2023-04-07T12:12:50;96174.94;;;18.60;69.75
36386;BME280;24125;47.482;8.770;2023-04-07T12:15:23;96176.41;;;18.54;69.69
36386;BME280;24125;47.482;8.770;2023-04-07T12:17:56;96186.03;;;18.47;68.27
36386;BME280;24125;47.482;8.770;2023-04-07T12:20:30;96186.00;;;18.40;70.39
36386;BME280;24125;47.482;8.770;2023-04-07T12:23:03;96182.47;;;18.33;71.51
36386;BME280;24125;47.482;8.770;2023-04-07T12:25:36;96180.47;;;18.26;72.51
36386;BME280;24125;47.482;8.770;2023-04-07T12:28:09;96181.56;;;18.18;71.31
36386;BME280;24125;47.482;8.770;2023-04-07T12:30:41;96178.38;;;18.09;70.51
36386;BME280;24125;47.482;8.770;2023-04-07T12:33:14;96179.84;;;17.99;67.92
36386;BME280;24125;47.482;8.770;2023-04-07T12:35:49;96184.41;;;17.92;68.09
36386;BME280;24125;47.482;8.770;2023-04-07T12:38:22;96188.97;;;17.84;70.66
36386;BME280;24125;47.482;8.770;2023-04-07T12:40:55;96190.47;;;17.78;71.95
36386;BME280;24125;47.482;8.770;2023-04-07T12:43:33;96191.19;;;17.71;70.34
36386;BME280;24125;47.482;8.770;2023-04-07T12:46:06;96190.34;;;17.64;68.95
36386;BME280;24125;47.482;8.770;2023-04-07T12:48:39;96173.22;;;17.56;70.31
36386;BME280;24125;47.482;8.770;2023-04-07T12:51:14;96177.84;;;17.52;71.03
36386;BME280;24125;47.482;8.770;2023-04-07T12:53:47;96178.13;;;17.47;70.43
36386;BME280;24125;47.482;8.770;2023-04-07T12:56:20;96178.13;;;17.44;71.19
36386;BME280;24125;47.482;8.770;2023-04-07T12:58:53;96179.22;;;17.39;70.87
36386;BME280;24125;47.482;8.770;2023-04-07T13:01:26;96183.44;;;17.37;70.94
36386;BME280;24125;47.482;8.770;2023-04-07T13:03:59;96176.06;;;17.33;70.73
36386;BME280;24125;47.482;8.770;2023-04-07T13:06:33;96178.72;;;17.30;69.41
36386;BME280;24125;47.482;8.770;2023-04-07T13:09:06;96178.69;;;17.26;70.42
36386;BME280;24125;47.482;8.770;2023-04-07T13:11:39;96174.06;;;17.27;72.09
36386;BME280;24125;47.482;8.770;2023-04-07T13:14:11;96188.34;;;17.27;73.01
36386;BME280;24125;47.482;8.770;2023-04-07T13:16:44;96184.88;;;17.27;72.23
36386;BME280;24125;47.482;8.770;2023-04-07T13:19:17;96183.72;;;17.28;72.81
36386;BME280;24125;47.482;8.770;2023-04-07T13:21:51;96182.59;;;17.29;72.13
36386;BME280;24125;47.482;8.770;2023-04-07T13:24:24;96178.34;;;17.31;73.46
36386;BME280;24125;47.482;8.770;2023-04-07T13:26:57;96184.94;;;17.34;73.18
36386;BME280;24125;47.482;8.770;2023-04-07T13:29:30;96185.38;;;17.36;71.98
36386;BME280;24125;47.482;8.770;2023-04-07T13:32:03;96180.75;;;17.37;72.22
36386;BME280;24125;47.482;8.770;2023-04-07T13:34:36;96185.00;;;17.38;72.38
36386;BME280;24125;47.482;8.770;2023-04-07T13:37:10;96186.16;;;17.40;72.22
36386;BME280;24125;47.482;8.770;2023-04-07T13:39:43;96183.47;;;17.40;72.57
36386;BME280;24125;47.482;8.770;2023-04-07T13:42:15;96184.25;;;17.41;71.70